Time;durP1;ratioP1;P1;durP2;ratioP2;P2;SDS_P1;SDS_P2;PMS_P1;PMS_P2;Temp;Humidity;BMP_temperature;BMP_pressure;BME280_temperature;BME280_humidity;BME280_pressure;Samples;Min_cycle;Max_cycle;Signal;HPM_P1;HPM_P2
2022/04/28 00:00:57;;;;;;;16.67;12.48;;;17.60;1.00;;;;;;5036282;28;20022;-62
2022/04/28 00:03:23;;;;;;;14.80;12.68;;;17.60;1.00;;;;;;5043475;28;20025;-62
2022/04/28 00:05:49;;;;;;;17.02;12.00;;;17.70;1.00;;;;;;5050107;28;20053;-62
2022/04/28 00:08:15;;;;;;;17.42;12.73;;;17.60;1.00;;;;;;5046728;28;20021;-62
2022/04/28 00:10:41;;;;;;;16.98;13.15;;;17.70;1.00;;;;;;5046115;28;20056;-62
2022/04/28 00:13:09;;;;;;;16.13;12.70;;;17.70;1.00;;;;;;5044491;28;20032;-62
2022/04/28 00:15:35;;;;;;;16.27;12.43;;;17.60;1.00;;;;;;5057781;28;20083;-62
2022/04/28 00:18:01;;;;;;;15.32;12.80;;;17.60;1.00;;;;;;5049087;28;20028;-62
2022/04/28 00:20:27;;;;;;;19.02;13.27;;;17.60;1.00;;;;;;5066876;28;20025;-62
2022/04/28 00:22:53;;;;;;;16.08;12.10;;;17.50;1.00;;;;;;5051982;28;20078;-62
2022/04/28 00:25:21;;;;;;;19.60;14.40;;;17.40;1.00;;;;;;5040368;28;20025;-62
2022/04/28 00:27:46;;;;;;;17.40;12.13;;;17.60;1.00;;;;;;5053198;28;20028;-62
2022/04/28 00:30:12;;;;;;;17.30;12.00;;;17.40;1.00;;;;;;5040348;28;20033;-62
2022/04/28 00:32:38;;;;;;;17.58;12.98;;;17.40;1.00;;;;;;5047085;28;20424;-62
2022/04/28 00:35:04;;;;;;;15.73;12.10;;;17.40;1.00;;;;;;5043336;28;20501;-62
2022/04/28 00:37:30;;;;;;;13.63;12.05;;;17.50;1.00;;;;;;5046420;28;20049;-62
2022/04/28 00:39:56;;;;;;;14.50;12.40;;;17.40;1.00;;;;;;5063167;28;20028;-62
2022/04/28 00:42:21;;;;;;;12.75;11.45;;;17.40;1.00;;;;;;5050545;28;20071;-62
2022/04/28 00:44:47;;;;;;;12.27;11.02;;;17.30;1.00;;;;;;5041785;28;20028;-62
2022/04/28 00:47:14;;;;;;;13.60;10.70;;;17.30;1.00;;;;;;5043335;28;20037;-62
2022/04/28 00:52:26;;;;;;;11.75;10.52;;;17.40;1.00;;;;;;5054191;28;20048;-62
2022/04/28 00:54:53;;;;;;;12.50;10.38;;;17.30;1.00;;;;;;5053314;28;20017;-62
2022/04/28 00:57:20;;;;;;;11.60;9.38;;;17.20;1.00;;;;;;5051268;28;20122;-62
2022/04/28 00:59:47;;;;;;;13.20;9.52;;;17.20;1.00;;;;;;5050453;28;20382;-62
2022/04/28 01:02:13;;;;;;;11.55;9.20;;;17.40;1.00;;;;;;5050920;28;20039;-61
2022/04/28 01:04:39;;;;;;;11.18;9.50;;;17.40;1.00;;;;;;5067839;28;20025;-62
2022/04/28 01:07:06;;;;;;;11.65;9.55;;;17.30;1.00;;;;;;5052161;28;20056;-62
2022/04/28 01:09:37;;;;;;;9.20;8.30;;;17.40;1.00;;;;;;5046394;28;20103;-62
2022/04/28 01:12:15;;;;;;;10.68;9.00;;;17.30;1.00;;;;;;5049896;28;20032;-62
2022/04/28 01:14:45;;;;;;;11.10;9.45;;;17.30;1.00;;;;;;5046267;28;20021;-62
2022/04/28 01:17:12;;;;;;;10.95;9.55;;;17.30;1.00;;;;;;5047759;28;20040;-62
2022/04/28 01:19:38;;;;;;;9.05;8.18;;;17.30;1.00;;;;;;5035735;28;20036;-62
2022/04/28 01:22:05;;;;;;;9.48;8.55;;;17.30;1.00;;;;;;5052175;28;20029;-62
2022/04/28 01:24:31;;;;;;;9.70;8.48;;;17.20;1.00;;;;;;5049263;28;20116;-62
2022/04/28 01:26:59;;;;;;;10.27;7.93;;;17.20;1.00;;;;;;5049243;28;20033;-61
2022/04/28 01:29:25;;;;;;;9.88;8.18;;;17.30;1.00;;;;;;5051338;28;20033;-61
2022/04/28 01:31:51;;;;;;;9.95;7.32;;;17.10;1.00;;;;;;5051321;28;20461;-62
2022/04/28 01:34:16;;;;;;;11.20;7.90;;;17.20;1.00;;;;;;5053923;28;20024;-62
2022/04/28 01:36:42;;;;;;;8.93;8.02;;;17.10;1.00;;;;;;5051313;28;20490;-62
2022/04/28 01:39:09;;;;;;;9.15;7.25;;;17.10;1.00;;;;;;5051264;28;20104;-62
2022/04/28 01:41:35;;;;;;;10.05;7.60;;;17.10;1.00;;;;;;5051151;28;20057;-62
2022/04/28 01:44:01;;;;;;;8.25;7.30;;;17.20;1.00;;;;;;5055371;28;20029;-62
2022/04/28 01:46:28;;;;;;;9.48;7.70;;;17.10;1.00;;;;;;5044590;28;20116;-62
2022/04/28 01:48:54;;;;;;;7.93;6.90;;;17.10;1.00;;;;;;5038199;28;20033;-62
2022/04/28 01:56:48;;;;;;;8.15;7.20;;;16.90;1.00;;;;;;5042504;28;20048;-62
2022/04/28 01:59:14;;;;;;;7.45;6.22;;;16.90;1.00;;;;;;5037535;28;20026;-62
2022/04/28 02:01:40;;;;;;;8.13;7.32;;;16.80;1.00;;;;;;5046728;28;20032;-62
2022/04/28 02:04:05;;;;;;;8.50;7.07;;;16.90;1.00;;;;;;5051921;28;20021;-62
2022/04/28 02:06:31;;;;;;;9.07;7.00;;;16.90;1.00;;;;;;5053169;28;20112;-62
2022/04/28 02:08:57;;;;;;;10.07;7.22;;;16.90;1.00;;;;;;5046259;28;20102;-62
2022/04/28 02:11:23;;;;;;;7.53;6.45;;;16.90;1.00;;;;;;5048926;28;20029;-62
2022/04/28 02:13:49;;;;;;;8.40;6.35;;;16.70;1.00;;;;;;5047674;28;20075;-62
2022/04/28 02:16:14;;;;;;;8.85;7.18;;;16.70;1.00;;;;;;5052016;28;20033;-62
2022/04/28 02:18:40;;;;;;;10.25;6.50;;;16.70;1.00;;;;;;5048860;28;20437;-62
2022/04/28 02:21:06;;;;;;;8.90;6.65;;;16.80;1.00;;;;;;5050987;28;20028;-62
2022/04/28 02:23:32;;;;;;;7.70;6.50;;;16.70;1.00;;;;;;5049023;28;20203;-61
2022/04/28 02:25:58;;;;;;;9.13;6.70;;;16.70;1.00;;;;;;5051979;28;20108;-62
2022/04/28 02:28:25;;;;;;;9.02;6.63;;;16.70;1.00;;;;;;5049281;28;20031;-62
2022/04/28 02:30:51;;;;;;;7.78;6.50;;;16.60;1.00;;;;;;5045393;28;20068;-62
2022/04/28 02:33:18;;;;;;;10.52;7.18;;;16.70;1.00;;;;;;5044661;28;20458;-62
2022/04/28 02:35:44;;;;;;;8.95;6.72;;;16.50;1.00;;;;;;5047017;28;20090;-62
2022/04/28 02:38:09;;;;;;;8.75;6.55;;;16.60;1.00;;;;;;5050973;28;20470;-62
2022/04/28 02:40:35;;;;;;;7.63;6.75;;;16.50;1.00;;;;;;5050465;28;20461;-62
2022/04/28 02:43:01;;;;;;;8.38;6.38;;;16.60;1.00;;;;;;5045618;28;20462;-62
2022/04/28 02:45:26;;;;;;;8.35;6.60;;;16.40;1.00;;;;;;5038426;28;20116;-61
2022/04/28 02:47:52;;;;;;;7.32;6.10;;;16.50;1.00;;;;;;5050901;28;20021;-61
2022/04/28 02:50:21;;;;;;;9.02;6.40;;;16.50;1.00;;;;;;5050702;28;20158;-62
2022/04/28 02:52:48;;;;;;;9.63;6.13;;;16.50;1.00;;;;;;5052019;28;20025;-62
2022/04/28 02:55:14;;;;;;;7.18;5.88;;;16.50;1.00;;;;;;5048808;28;20025;-62
2022/04/28 02:57:39;;;;;;;11.82;6.65;;;16.50;1.00;;;;;;5043256;28;20044;-61
2022/04/28 03:00:06;;;;;;;7.40;5.43;;;16.50;1.00;;;;;;5043823;28;20095;-61
2022/04/28 03:02:31;;;;;;;7.03;5.72;;;16.50;1.00;;;;;;5052004;28;20120;-61
2022/04/28 03:04:57;;;;;;;6.75;5.63;;;16.40;1.00;;;;;;5052463;28;20025;-61
2022/04/28 03:12:52;;;;;;;6.88;6.07;;;16.30;1.00;;;;;;5045086;28;20624;-62
2022/04/28 03:15:18;;;;;;;8.95;5.75;;;16.30;1.00;;;;;;5038822;28;20116;-61
2022/04/28 03:17:44;;;;;;;6.43;5.70;;;16.10;1.00;;;;;;5048340;28;20032;-61
2022/04/28 03:20:10;;;;;;;7.22;5.80;;;16.30;1.00;;;;;;5045913;28;20479;-61
2022/04/28 03:22:36;;;;;;;7.28;5.97;;;16.30;1.00;;;;;;5040110;28;20025;-61
2022/04/28 03:25:05;;;;;;;8.40;5.70;;;16.20;1.00;;;;;;5039593;28;20376;-61
2022/04/28 03:27:33;;;;;;;7.00;5.57;;;16.20;1.00;;;;;;5040284;28;20043;-62
2022/04/28 03:29:59;;;;;;;7.10;6.03;;;16.20;1.00;;;;;;5051965;28;20040;-61
2022/04/28 03:32:25;;;;;;;7.25;5.82;;;16.10;1.00;;;;;;5035268;28;20479;-60
2022/04/28 03:34:50;;;;;;;9.15;6.18;;;16.20;1.00;;;;;;5040008;28;20121;-61
2022/04/28 03:37:16;;;;;;;6.90;5.50;;;16.10;1.00;;;;;;5048315;28;20140;-60
2022/04/28 03:39:42;;;;;;;7.68;5.63;;;16.10;1.00;;;;;;5045459;28;20552;-60
2022/04/28 03:42:19;;;;;;;8.82;5.60;;;16.10;1.00;;;;;;5039855;28;20383;-61
2022/04/28 03:44:45;;;;;;;7.38;5.70;;;16.20;1.00;;;;;;5043795;28;20057;-61
2022/04/28 03:47:11;;;;;;;8.27;6.03;;;16.00;1.00;;;;;;5046489;28;20524;-61
2022/04/28 03:49:36;;;;;;;7.53;5.85;;;16.00;1.00;;;;;;5057044;28;20021;-62
2022/04/28 03:52:03;;;;;;;8.07;5.75;;;16.10;1.00;;;;;;5043655;28;20406;-61
2022/04/28 03:54:29;;;;;;;8.07;5.88;;;16.10;1.00;;;;;;5043134;28;20028;-61
2022/04/28 03:56:55;;;;;;;6.60;5.00;;;16.20;1.00;;;;;;5043840;28;20036;-60
2022/04/28 03:59:20;;;;;;;7.50;4.88;;;16.00;1.00;;;;;;5043300;28;20124;-61
2022/04/28 04:01:46;;;;;;;6.82;5.53;;;16.10;1.00;;;;;;5046062;28;20429;-61
2022/04/28 04:04:12;;;;;;;5.25;4.70;;;16.10;1.00;;;;;;5039698;28;20022;-62
2022/04/28 04:06:37;;;;;;;6.30;5.25;;;16.10;1.00;;;;;;5047197;28;20037;-61
2022/04/28 04:09:03;;;;;;;7.38;5.55;;;16.10;1.00;;;;;;5043754;28;20028;-61
2022/04/28 04:11:28;;;;;;;7.38;4.65;;;16.10;1.00;;;;;;5042038;28;20017;-61
2022/04/28 04:13:54;;;;;;;5.30;4.63;;;16.00;1.00;;;;;;5043411;28;20025;-62
2022/04/28 04:16:20;;;;;;;6.60;4.47;;;16.00;1.00;;;;;;5043017;28;20043;-61
2022/04/28 04:18:46;;;;;;;6.55;4.63;;;16.00;1.00;;;;;;5039097;28;20030;-61
2022/04/28 04:21:12;;;;;;;5.75;5.03;;;15.90;1.00;;;;;;5051686;28;20033;-61
2022/04/28 04:23:38;;;;;;;6.47;5.68;;;15.90;1.00;;;;;;5043022;28;20367;-61
2022/04/28 04:26:03;;;;;;;6.22;5.00;;;15.90;1.00;;;;;;5037442;28;20043;-61
2022/04/28 04:28:29;;;;;;;8.23;6.15;;;15.90;1.00;;;;;;5045246;28;20033;-62
2022/04/28 04:33:39;;;;;;;6.10;5.28;;;15.90;1.00;;;;;;5042672;28;20032;-62
2022/04/28 04:36:06;;;;;;;6.47;5.50;;;15.80;1.00;;;;;;5042331;28;20390;-61
2022/04/28 04:38:31;;;;;;;6.38;5.60;;;15.70;1.00;;;;;;5060966;28;20037;-62
2022/04/28 04:40:57;;;;;;;10.00;5.35;;;15.90;1.00;;;;;;5045745;28;20462;-61
2022/04/28 04:43:23;;;;;;;6.70;5.72;;;15.70;1.00;;;;;;5038261;28;20131;-62
2022/04/28 04:45:48;;;;;;;7.85;5.22;;;15.70;1.00;;;;;;5045942;28;20055;-61
2022/04/28 04:48:14;;;;;;;5.80;5.20;;;15.70;1.00;;;;;;5055943;28;20111;-62
2022/04/28 04:50:40;;;;;;;5.88;5.20;;;15.70;1.00;;;;;;5047737;28;20025;-60
2022/04/28 04:53:07;;;;;;;7.30;5.75;;;15.70;1.00;;;;;;5048088;28;20029;-61
2022/04/28 04:55:33;;;;;;;8.25;5.55;;;15.70;1.00;;;;;;5045583;28;20087;-61
2022/04/28 04:57:59;;;;;;;6.65;5.43;;;15.70;1.00;;;;;;5045354;28;20037;-61
2022/04/28 05:00:25;;;;;;;7.32;4.63;;;15.60;1.00;;;;;;5064557;28;20094;-61
2022/04/28 05:02:50;;;;;;;5.25;4.55;;;15.70;1.00;;;;;;5049050;28;20463;-61
2022/04/28 05:05:16;;;;;;;7.13;4.35;;;15.70;1.00;;;;;;5051719;28;20103;-62
2022/04/28 05:07:42;;;;;;;4.53;4.10;;;15.70;1.00;;;;;;5045542;28;20459;-60
2022/04/28 05:10:08;;;;;;;6.32;4.13;;;15.70;1.00;;;;;;5038833;28;20642;-61
2022/04/28 05:12:33;;;;;;;5.45;4.57;;;15.60;1.00;;;;;;5052046;28;20118;-61
2022/04/28 05:14:59;;;;;;;6.90;4.43;;;15.60;1.00;;;;;;5041084;28;20108;-61
2022/04/28 05:17:25;;;;;;;8.80;4.93;;;15.60;1.00;;;;;;5046855;28;20497;-61
2022/04/28 05:19:50;;;;;;;5.10;4.10;;;15.70;1.00;;;;;;5039508;28;20082;-61
2022/04/28 05:22:16;;;;;;;6.55;3.83;;;15.70;1.00;;;;;;5050627;28;20017;-61
2022/04/28 05:24:42;;;;;;;4.32;3.75;;;15.60;1.00;;;;;;5053801;28;20044;-61
2022/04/28 05:27:07;;;;;;;6.75;3.80;;;15.70;1.00;;;;;;5048786;28;20033;-61
2022/04/28 05:29:33;;;;;;;4.80;3.75;;;15.60;1.00;;;;;;5040532;28;20079;-62
2022/04/28 05:31:58;;;;;;;5.57;4.10;;;15.70;1.00;;;;;;5052098;28;20060;-61
2022/04/28 05:34:24;;;;;;;4.85;3.50;;;15.50;1.00;;;;;;5044643;28;20025;-61
2022/04/28 05:36:50;;;;;;;5.22;4.18;;;15.60;1.00;;;;;;5049676;28;20053;-61
2022/04/28 05:39:16;;;;;;;5.20;4.32;;;15.70;1.00;;;;;;5052855;28;20033;-61
2022/04/28 05:41:43;;;;;;;7.68;4.38;;;15.70;1.00;;;;;;5049816;28;20036;-60
2022/04/28 05:46:53;;;;;;;7.25;4.80;;;15.70;1.00;;;;;;5045589;28;20063;-61
2022/04/28 05:49:19;;;;;;;6.60;4.80;;;15.70;1.00;;;;;;5052349;28;20443;-61
2022/04/28 05:51:44;;;;;;;7.03;4.43;;;15.60;1.00;;;;;;5047866;28;20064;-61
2022/04/28 05:54:10;;;;;;;11.70;5.85;;;15.60;1.00;;;;;;5050514;28;20079;-61
2022/04/28 05:56:36;;;;;;;7.50;5.15;;;15.50;1.00;;;;;;5046684;28;20044;-61
2022/04/28 05:59:02;;;;;;;8.13;5.32;;;15.50;1.00;;;;;;5045887;28;20074;-61
2022/04/28 06:01:28;;;;;;;6.78;5.78;;;15.60;1.00;;;;;;5048633;28;20102;-61
2022/04/28 06:03:54;;;;;;;8.88;6.20;;;15.60;1.00;;;;;;5052395;28;20501;-62
2022/04/28 06:06:20;;;;;;;7.35;5.68;;;15.60;1.00;;;;;;5040628;28;20049;-61
2022/04/28 06:08:45;;;;;;;9.25;5.70;;;15.70;1.00;;;;;;5042976;28;20059;-62
2022/04/28 06:11:11;;;;;;;7.20;5.60;;;15.80;1.00;;;;;;5051125;28;20033;-61
2022/04/28 06:13:37;;;;;;;9.48;5.43;;;15.70;1.00;;;;;;5048179;28;20021;-61
2022/04/28 06:16:03;;;;;;;6.68;5.07;;;15.70;1.00;;;;;;5046800;28;20057;-61
2022/04/28 06:18:29;;;;;;;6.93;5.55;;;15.80;1.00;;;;;;5048927;28;20028;-61
2022/04/28 06:20:54;;;;;;;9.65;5.80;;;15.70;1.00;;;;;;5042713;28;20029;-61
2022/04/28 06:23:20;;;;;;;6.88;5.30;;;15.80;1.00;;;;;;5052332;28;20064;-61
2022/04/28 06:25:47;;;;;;;9.50;5.32;;;15.80;1.00;;;;;;5051028;28;20047;-61
2022/04/28 06:28:15;;;;;;;7.75;5.55;;;15.90;1.00;;;;;;5051077;28;20021;-61
2022/04/28 06:30:41;;;;;;;7.45;4.72;;;15.80;1.00;;;;;;5046527;28;20055;-61
2022/04/28 06:33:08;;;;;;;5.35;4.45;;;15.80;1.00;;;;;;5052521;28;20025;-62
2022/04/28 06:35:34;;;;;;;7.63;4.10;;;15.90;1.00;;;;;;5050035;28;20017;-61
2022/04/28 06:38:01;;;;;;;5.72;3.90;;;15.80;1.00;;;;;;5052048;28;20052;-62
2022/04/28 06:40:26;;;;;;;4.80;3.83;;;15.80;1.00;;;;;;5048119;28;20095;-61
2022/04/28 06:42:52;;;;;;;6.60;4.38;;;15.80;1.00;;;;;;5052400;28;20029;-62
2022/04/28 06:45:18;;;;;;;5.10;4.03;;;15.90;1.00;;;;;;5051856;28;20036;-62
2022/04/28 06:47:44;;;;;;;9.20;4.30;;;15.90;1.00;;;;;;5049849;28;20032;-62
2022/04/28 06:50:39;;;;;;;5.07;3.60;;;15.90;1.00;;;;;;5050760;28;20036;-62
2022/04/28 06:53:04;;;;;;;4.22;3.50;;;15.90;1.00;;;;;;5050277;28;20041;-61
2022/04/28 06:55:30;;;;;;;6.57;3.45;;;15.90;1.00;;;;;;5053140;28;20528;-61
2022/04/28 06:57:55;;;;;;;6.03;3.70;;;15.90;1.00;;;;;;5049382;28;20024;-61
2022/04/28 07:00:21;;;;;;;6.05;4.10;;;16.00;1.00;;;;;;5053292;28;20382;-61
2022/04/28 07:02:47;;;;;;;4.40;3.83;;;16.10;1.00;;;;;;5052845;28;20021;-61
2022/04/28 07:05:12;;;;;;;5.07;3.90;;;16.00;1.00;;;;;;5051575;28;20470;-61
2022/04/28 07:07:38;;;;;;;8.43;4.30;;;16.10;1.00;;;;;;5050828;28;20036;-61
2022/04/28 07:10:04;;;;;;;7.82;4.00;;;16.10;1.00;;;;;;5048327;28;20070;-60
2022/04/28 07:12:30;;;;;;;5.47;3.60;;;16.10;1.00;;;;;;5049821;28;20044;-61
2022/04/28 07:14:55;;;;;;;8.65;4.03;;;16.10;1.00;;;;;;5052575;28;20025;-61
2022/04/28 07:17:21;;;;;;;5.88;3.92;;;16.20;1.00;;;;;;5051732;28;20029;-61
2022/04/28 07:19:47;;;;;;;6.72;3.95;;;16.20;1.00;;;;;;5052932;28;20033;-62
2022/04/28 07:22:12;;;;;;;4.97;3.28;;;16.10;1.00;;;;;;5050723;28;20052;-61
2022/04/28 07:24:38;;;;;;;5.18;3.88;;;16.20;1.00;;;;;;5052800;28;20052;-61
2022/04/28 07:27:03;;;;;;;6.22;4.25;;;16.20;1.00;;;;;;5051735;28;20037;-61
2022/04/28 07:29:29;;;;;;;6.60;3.65;;;16.30;1.00;;;;;;5052856;28;20079;-61
2022/04/28 07:31:55;;;;;;;6.70;3.67;;;16.30;1.00;;;;;;5051713;28;20086;-61
2022/04/28 07:34:21;;;;;;;5.15;4.00;;;16.30;1.00;;;;;;5052664;28;20028;-60
2022/04/28 07:36:46;;;;;;;6.20;3.63;;;16.40;1.00;;;;;;5051248;28;20091;-60
2022/04/28 07:39:12;;;;;;;4.32;3.92;;;16.40;1.00;;;;;;5051258;28;20090;-61
2022/04/28 07:41:38;;;;;;;4.55;3.50;;;16.50;1.00;;;;;;5051968;28;20699;-60
2022/04/28 07:44:04;;;;;;;4.82;3.92;;;16.50;1.00;;;;;;5052394;28;20032;-61
2022/04/28 07:46:29;;;;;;;5.75;3.42;;;16.60;1.00;;;;;;5051090;28;20048;-61
2022/04/28 07:48:55;;;;;;;5.95;4.90;;;16.60;1.00;;;;;;5051060;28;20101;-61
2022/04/28 07:51:21;;;;;;;6.30;4.40;;;16.60;1.00;;;;;;5052230;28;20056;-61
2022/04/28 07:53:46;;;;;;;6.15;5.53;;;16.70;1.00;;;;;;5052088;28;20531;-61
2022/04/28 07:56:15;;;;;;;5.03;3.65;;;16.70;1.00;;;;;;5052301;28;20124;-61
2022/04/28 07:58:42;;;;;;;4.75;4.25;;;16.80;1.00;;;;;;5050952;28;20221;-60
2022/04/28 08:01:08;;;;;;;5.43;2.85;;;16.70;1.00;;;;;;5052032;28;20021;-61
2022/04/28 08:03:34;;;;;;;8.30;3.70;;;16.80;1.00;;;;;;5051541;28;20029;-61
2022/04/28 08:06:00;;;;;;;6.47;3.90;;;16.80;1.00;;;;;;5066053;28;20066;-61
2022/04/28 08:08:25;;;;;;;7.10;3.50;;;16.80;1.00;;;;;;5051155;28;20091;-61
2022/04/28 08:10:51;;;;;;;4.25;3.45;;;16.90;1.00;;;;;;5051991;28;20154;-58
2022/04/28 08:13:17;;;;;;;6.95;4.38;;;17.00;1.00;;;;;;5050891;28;20462;-59
2022/04/28 08:15:43;;;;;;;4.90;4.43;;;17.20;1.00;;;;;;5051688;28;20021;-58
2022/04/28 08:18:09;;;;;;;4.78;4.10;;;17.30;1.00;;;;;;5050346;28;20087;-57
2022/04/28 08:20:35;;;;;;;6.18;3.10;;;17.30;1.00;;;;;;5051934;28;20445;-55
2022/04/28 08:23:00;;;;;;;4.18;3.22;;;17.50;1.00;;;;;;5051272;28;20027;-53
2022/04/28 08:25:26;;;;;;;3.13;2.42;;;17.70;1.00;;;;;;5054067;28;20043;-55
2022/04/28 08:27:52;;;;;;;4.90;2.88;;;17.70;3.30;;;;;;5061499;28;20043;-56
2022/04/28 08:30:17;;;;;;;4.43;2.92;;;17.90;1.00;;;;;;5056329;28;20074;-56
2022/04/28 08:32:43;;;;;;;3.58;3.28;;;18.00;1.00;;;;;;5053259;28;20029;-54
2022/04/28 08:35:09;;;;;;;4.00;2.90;;;18.10;1.00;;;;;;5053335;28;20547;-54
2022/04/28 08:37:36;;;;;;;4.75;2.80;;;18.20;1.00;;;;;;5054924;28;20041;-56
2022/04/28 08:40:02;;;;;;;6.05;3.22;;;18.20;1.00;;;;;;5055542;28;20451;-57
2022/04/28 08:42:31;;;;;;;6.97;3.83;;;18.20;1.00;;;;;;5054605;28;20044;-57
2022/04/28 08:44:59;;;;;;;5.80;3.33;;;18.10;1.00;;;;;;5053822;28;20044;-56
2022/04/28 08:47:25;;;;;;;4.60;3.30;;;18.10;1.00;;;;;;5053394;28;20398;-55
2022/04/28 08:49:51;;;;;;;7.07;3.25;;;18.10;1.00;;;;;;5055495;28;20125;-56
2022/04/28 08:52:18;;;;;;;5.38;2.85;;;18.10;1.00;;;;;;5054183;28;20435;-52
2022/04/28 08:54:45;;;;;;;2.78;2.58;;;18.10;1.00;;;;;;5055449;28;20028;-56
2022/04/28 08:57:13;;;;;;;2.95;2.67;;;18.10;1.00;;;;;;5048835;28;20083;-56
2022/04/28 08:59:40;;;;;;;5.15;3.97;;;18.10;1.00;;;;;;5036823;28;20032;-56
2022/04/28 09:02:06;;;;;;;4.45;3.15;;;18.10;1.00;;;;;;5052192;28;20033;-55
2022/04/28 09:04:31;;;;;;;4.43;3.67;;;18.00;1.00;;;;;;5053552;28;20033;-56
2022/04/28 09:06:58;;;;;;;5.63;3.30;;;18.10;1.00;;;;;;5065526;28;20182;-56
2022/04/28 09:09:27;;;;;;;4.93;3.22;;;18.00;1.00;;;;;;5052733;28;20029;-55
2022/04/28 09:11:57;;;;;;;8.30;4.13;;;18.10;1.00;;;;;;5052896;28;20029;-55
2022/04/28 09:14:23;;;;;;;4.90;4.13;;;18.20;1.00;;;;;;5051407;28;20032;-54
2022/04/28 09:16:56;;;;;;;4.07;3.63;;;18.20;1.00;;;;;;5070260;28;20116;-54
2022/04/28 09:19:25;;;;;;;5.43;3.63;;;18.20;1.00;;;;;;5052850;28;20040;-53
2022/04/28 09:21:56;;;;;;;5.40;4.72;;;18.20;1.00;;;;;;5055330;28;20025;-54
2022/04/28 09:24:23;;;;;;;7.85;4.63;;;18.30;1.00;;;;;;5054474;28;20036;-57
2022/04/28 09:26:53;;;;;;;6.03;4.25;;;18.30;1.00;;;;;;5053391;28;20028;-55
2022/04/28 09:29:20;;;;;;;5.97;4.38;;;18.30;1.00;;;;;;5055045;28;20013;-53
2022/04/28 09:31:48;;;;;;;4.30;3.65;;;18.80;13.10;;;;;;5054469;28;20029;-53
2022/04/28 09:34:15;;;;;;;4.75;2.97;;;18.40;1.00;;;;;;5054861;28;20021;-56
2022/04/28 09:36:43;;;;;;;3.50;2.90;;;18.40;1.00;;;;;;5053634;28;20063;-55
2022/04/28 09:39:13;;;;;;;8.18;4.22;;;18.40;1.00;;;;;;5049687;28;20659;-54
2022/04/28 09:44:24;;;;;;;6.53;3.55;;;18.40;1.00;;;;;;5034994;28;20399;-55
2022/04/28 09:46:50;;;;;;;4.32;3.17;;;18.50;1.00;;;;;;5034618;28;20454;-56
2022/04/28 09:49:23;;;;;;;6.03;4.78;;;18.50;1.00;;;;;;5054319;28;20107;-57
2022/04/28 09:51:59;;;;;;;4.45;3.22;;;18.60;1.00;;;;;;5054568;28;20024;-56
2022/04/28 09:54:28;;;;;;;6.15;3.60;;;18.60;1.00;;;;;;5041916;28;20052;-54
2022/04/28 09:56:54;;;;;;;5.63;4.95;;;18.70;1.00;;;;;;5048691;28;20415;-56
2022/04/28 09:59:20;;;;;;;4.18;3.60;;;18.80;1.00;;;;;;5053979;28;20039;-56
2022/04/28 10:01:46;;;;;;;9.43;3.20;;;18.70;1.00;;;;;;5050639;28;20026;-57
2022/04/28 10:04:11;;;;;;;5.72;2.90;;;18.80;1.00;;;;;;5045999;28;20199;-56
2022/04/28 10:06:38;;;;;;;3.95;3.10;;;18.80;1.00;;;;;;5064722;28;20123;-56
2022/04/28 10:09:17;;;;;;;5.70;4.15;;;18.80;1.00;;;;;;5064828;28;20035;-56
2022/04/28 10:41:13;;;;;;;5.15;2.95;;;19.70;1.00;;;;;;5035177;28;20044;-58
2022/04/28 10:43:40;;;;;;;3.45;2.00;;;19.70;1.00;;;;;;5053206;28;20439;-57
2022/04/28 10:46:08;;;;;;;2.20;1.98;;;19.80;1.00;;;;;;5052572;28;20398;-61
2022/04/28 10:48:42;;;;;;;3.22;2.83;;;19.90;1.00;;;;;;5050404;28;20024;-58
2022/04/28 10:51:13;;;;;;;4.45;2.60;;;19.90;1.00;;;;;;5046429;28;20026;-58
2022/04/28 10:54:03;;;;;;;3.20;2.90;;;19.90;1.00;;;;;;5049421;28;20021;-57
2022/04/28 10:56:56;;;;;;;4.30;3.55;;;20.10;1.00;;;;;;5050479;28;20021;-58
2022/04/28 10:59:29;;;;;;;5.20;3.30;;;20.30;1.00;;;;;;5052271;28;20028;-57
2022/04/28 11:01:56;;;;;;;4.93;3.15;;;20.30;1.00;;;;;;5050435;28;20145;-58
2022/04/28 11:04:24;;;;;;;5.68;3.80;;;20.30;1.00;;;;;;5051859;28;20059;-58
2022/04/28 11:06:54;;;;;;;3.30;3.00;;;20.30;1.00;;;;;;5052702;28;20032;-58
2022/04/28 11:09:32;;;;;;;3.42;3.13;;;20.30;1.00;;;;;;5051211;28;20040;-57
2022/04/28 11:12:07;;;;;;;4.20;3.17;;;20.30;1.00;;;;;;5052794;28;20104;-57
2022/04/28 11:15:09;;;;;;;4.70;2.60;;;20.30;1.00;;;;;;5052649;28;20017;-56
2022/04/28 11:17:36;;;;;;;3.35;2.50;;;20.40;1.00;;;;;;5051805;28;20037;-57
2022/04/28 11:20:05;;;;;;;3.05;2.65;;;20.40;1.00;;;;;;5052386;28;20051;-57
2022/04/28 11:22:31;;;;;;;2.63;2.42;;;20.50;1.00;;;;;;5053062;28;20128;-56
2022/04/28 11:24:57;;;;;;;2.85;2.65;;;20.60;1.00;;;;;;5052134;28;20032;-56
2022/04/28 11:27:25;;;;;;;3.97;2.97;;;20.70;1.00;;;;;;5052951;28;20037;-56
2022/04/28 11:29:55;;;;;;;3.30;3.00;;;20.80;1.00;;;;;;5052549;28;20139;-55
2022/04/28 11:32:21;;;;;;;2.60;2.40;;;20.90;1.00;;;;;;5052972;28;20124;-56
2022/04/28 11:34:48;;;;;;;4.80;2.85;;;20.90;1.00;;;;;;5052241;28;20096;-55
2022/04/28 11:37:19;;;;;;;4.75;3.92;;;21.10;1.00;;;;;;5053058;28;20043;-55
2022/04/28 11:39:49;;;;;;;2.65;2.45;;;21.30;1.00;;;;;;5052211;28;20096;-57
2022/04/28 11:42:18;;;;;;;5.20;3.78;;;21.50;1.00;;;;;;5052820;28;20174;-56
2022/04/28 11:44:53;;;;;;;5.93;3.35;;;21.60;1.00;;;;;;5067496;28;20029;-57
2022/04/28 11:47:19;;;;;;;4.30;3.90;;;21.60;1.00;;;;;;5067997;28;20040;-57
2022/04/28 11:49:45;;;;;;;4.57;4.18;;;21.90;1.00;;;;;;5052318;28;20025;-57
2022/04/28 11:52:23;;;;;;;4.55;4.03;;;22.60;1.00;;;;;;5052865;28;20115;-57
2022/04/28 11:54:57;;;;;;;4.97;3.38;;;24.50;1.00;;;;;;5052504;28;20040;-58
2022/04/28 11:57:24;;;;;;;4.78;3.75;;;25.60;1.00;;;;;;5052466;28;20021;-55
2022/04/28 11:59:50;;;;;;;5.43;4.03;;;25.50;1.00;;;;;;5050734;28;20143;-57
2022/04/28 12:02:36;;;;;;;4.15;3.75;;;25.00;1.00;;;;;;5051887;28;20112;-57
2022/04/28 12:05:15;;;;;;;4.65;3.85;;;24.20;1.00;;;;;;5051847;28;20502;-57
2022/04/28 12:07:50;;;;;;;5.07;3.80;;;24.30;1.00;;;;;;5052914;28;20076;-56
2022/04/28 12:15:52;;;;;;;4.85;4.45;;;25.50;1.00;;;;;;5051828;28;20099;-56
2022/04/28 12:21:18;;;;;;;5.10;4.57;;;26.90;1.00;;;;;;5032936;28;20072;-58
2022/04/28 12:23:47;;;;;;;5.25;4.75;;;26.60;1.00;;;;;;5033255;28;20022;-58
2022/04/28 12:26:13;;;;;;;5.50;4.82;;;26.30;1.00;;;;;;5051430;28;20032;-58
2022/04/28 12:28:40;;;;;;;6.40;5.80;;;26.90;1.00;;;;;;5047316;28;20014;-58
2022/04/28 12:31:11;;;;;;;7.47;5.80;;;26.70;1.00;;;;;;5052283;28;20033;-58
2022/04/28 12:33:38;;;;;;;5.82;5.35;;;27.80;1.00;;;;;;5051772;28;20121;-58
2022/04/28 12:36:06;;;;;;;5.53;4.50;;;29.10;1.00;;;;;;5051660;28;20478;-59
2022/04/28 12:38:35;;;;;;;6.40;4.38;;;29.90;1.00;;;;;;5052352;28;20029;-58
2022/04/28 12:41:27;;;;;;;5.13;4.72;;;29.90;1.00;;;;;;5051341;28;20487;-59
2022/04/28 12:43:58;;;;;;;6.47;5.05;;;30.50;1.00;;;;;;5050656;28;20546;-58
2022/04/28 12:46:35;;;;;;;5.45;4.95;;;30.00;1.00;;;;;;5051588;28;20176;-58
2022/04/28 12:49:08;;;;;;;5.13;4.68;;;29.60;1.00;;;;;;5066581;28;20036;-58
2022/04/28 12:51:42;;;;;;;5.07;4.30;;;29.30;1.00;;;;;;5051531;28;20036;-58
2022/04/28 12:54:10;;;;;;;6.60;5.07;;;29.60;1.00;;;;;;5051570;28;20427;-58
2022/04/28 12:56:37;;;;;;;7.30;5.60;;;31.00;1.00;;;;;;5067392;28;20490;-58
2022/04/28 12:59:05;;;;;;;7.65;5.53;;;32.30;1.00;;;;;;5051865;28;20037;-58
2022/04/28 13:01:32;;;;;;;5.28;4.88;;;32.50;1.00;;;;;;5067453;28;20086;-58
2022/04/28 13:04:06;;;;;;;6.22;5.72;;;31.70;1.00;;;;;;5050398;28;20110;-58
2022/04/28 13:06:35;;;;;;;5.43;4.95;;;31.70;1.00;;;;;;5052359;28;20036;-59
2022/04/28 13:09:02;;;;;;;5.55;5.15;;;32.00;1.00;;;;;;5051361;28;20017;-58
2022/04/28 13:11:31;;;;;;;6.47;5.40;;;32.70;1.00;;;;;;5053454;28;20359;-59
2022/04/28 13:13:58;;;;;;;8.27;7.53;;;33.20;1.00;;;;;;5054262;28;20029;-58
2022/04/28 13:16:25;;;;;;;7.40;6.80;;;34.00;1.00;;;;;;5055713;28;20025;-58
2022/04/28 13:18:51;;;;;;;6.60;5.70;;;35.50;1.00;;;;;;5054817;28;20029;-58
2022/04/28 13:21:17;;;;;;;6.63;5.45;;;36.60;1.00;;;;;;5055408;28;20033;-58
2022/04/28 13:23:44;;;;;;;6.07;5.65;;;38.40;1.00;;;;;;5054744;28;20120;-58
2022/04/28 13:26:11;;;;;;;8.68;6.40;;;38.30;1.00;;;;;;5052194;28;20086;-59
2022/04/28 13:28:37;;;;;;;7.68;5.95;;;37.80;1.00;;;;;;5051990;28;20521;-57
2022/04/28 13:31:04;;;;;;;7.93;6.13;;;38.20;1.00;;;;;;5051716;28;20025;-58
2022/04/28 13:33:31;;;;;;;5.80;5.22;;;39.10;1.00;;;;;;5051939;28;20471;-58
2022/04/28 13:35:57;;;;;;;6.05;5.55;;;39.70;1.00;;;;;;5052560;28;20450;-59
2022/04/28 13:38:23;;;;;;;6.38;5.63;;;40.10;1.00;;;;;;5054352;28;20021;-58
2022/04/28 13:40:49;;;;;;;10.50;6.22;;;39.10;1.00;;;;;;5052845;28;20045;-59
2022/04/28 13:43:15;;;;;;;6.97;6.38;;;39.60;1.00;;;;;;5053861;28;20824;-59
2022/04/28 13:45:40;;;;;;;15.07;6.28;;;39.60;1.00;;;;;;5068406;28;20033;-58
2022/04/28 13:48:06;;;;;;;6.18;5.78;;;38.10;1.00;;;;;;5051663;28;20051;-59
2022/04/28 13:50:32;;;;;;;6.43;5.57;;;36.80;1.00;;;;;;5052004;28;20041;-58
2022/04/28 13:52:58;;;;;;;6.70;5.97;;;37.30;1.00;;;;;;5053907;28;20411;-58
2022/04/28 13:55:23;;;;;;;6.03;5.43;;;37.00;1.00;;;;;;5052913;28;20041;-58